^^
Station Historical Data
Daily Summary for April 1, 2021 Units:  English    Metric   Both
Daily Weekly Monthly Yearly
  High: Low: Average:
Temperature: 30.7 °F 23.6 °F 26.6 °F
Dew Point: 23.5 °F 14.6 °F 18.4 °F
Humidity: 83% 62% 71%
Wind Speed: 11mph 4mph 7.4mph
Wind Gust: 21mph - -
Wind- - WSW
Pressure: 30.41 in 30.21 in -
Precipitation: 0.01 in    
 
 
Tabular Data for April 1, 2021
Time Temperature Dew Point Pressure Wind Wind Speed Wind Gust Humidity Rainfall Rate (Hourly) solar
00:00 30.7 °F 21.4 °F 30.21 in North 6 mph 6 mph 68% 0.00 in 0 W/m2
00:05 30.7 °F 21.7 °F 30.21 in NNW 6 mph 15 mph 69% 0.00 in 0 W/m2
00:10 30.5 °F 21.5 °F 30.21 in NW 6 mph 8 mph 69% 0.00 in 0 W/m2
00:15 30.4 °F 21.8 °F 30.21 in NNW 6 mph 8 mph 70% 0.00 in 0 W/m2
00:20 30.4 °F 21.8 °F 30.21 in North 5 mph 9 mph 70% 0.00 in 0 W/m2
00:25 30.2 °F 21.2 °F 30.21 in NW 5 mph 9 mph 69% 0.00 in 0 W/m2
00:30 30.3 °F 22 °F 30.21 in NNW 5 mph 8 mph 71% 0.00 in 0 W/m2
00:35 30.2 °F 21.2 °F 30.22 in WNW 4 mph 8 mph 69% 0.00 in 0 W/m2
00:40 30.2 °F 21.2 °F 30.21 in NNW 5 mph 5 mph 69% 0.00 in 0 W/m2
00:45 30.1 °F 20.8 °F 30.22 in NW 5 mph 6 mph 68% 0.00 in 0 W/m2
00:50 30 °F 20 °F 30.22 in NW 5 mph 5 mph 66% 0.00 in 0 W/m2
00:55 30 °F 20.4 °F 30.22 in North 5 mph 5 mph 67% 0.00 in 0 W/m2
01:00 30 °F 20.4 °F 30.22 in NNW 5 mph 8 mph 67% 0.00 in 0 W/m2
01:05 30 °F 20.7 °F 30.22 in WNW 5 mph 8 mph 68% 0.00 in 0 W/m2
01:10 30.1 °F 21.2 °F 30.22 in West 5 mph 5 mph 69% 0.00 in 0 W/m2
01:15 30.1 °F 20.8 °F 30.22 in NE 5 mph 5 mph 68% 0.00 in 0 W/m2
01:20 30 °F 22.7 °F 30.22 in North 5 mph 6 mph 74% 0.00 in 0 W/m2
01:25 29.6 °F 22.6 °F 30.22 in NW 6 mph 6 mph 75% 0.00 in 0 W/m2
01:30 29.5 °F 23.5 °F 30.22 in North 6 mph 6 mph 78% 0.00 in 0 W/m2
01:35 29.2 °F 22.9 °F 30.22 in NE 7 mph 7 mph 77% 0.00 in 0 W/m2
01:40 29 °F 23.3 °F 30.22 in North 6 mph 11 mph 79% 0.00 in 0 W/m2
01:45 28.8 °F 23.1 °F 30.22 in NNE 6 mph 11 mph 79% 0.00 in 0 W/m2
01:50 28.6 °F 22.9 °F 30.23 in NNE 6 mph 6 mph 79% 0.00 in 0 W/m2
01:55 28.2 °F 22.5 °F 30.23 in NE 6 mph 7 mph 79% 0.00 in 0 W/m2
02:00 28.2 °F 22.5 °F 30.23 in NE 6 mph 6 mph 79% 0.00 in 0 W/m2
02:05 28.1 °F 22.4 °F 30.23 in NNE 6 mph 6 mph 79% 0.00 in 0 W/m2
02:10 28.1 °F 22.4 °F 30.23 in North 5 mph 5 mph 79% 0.00 in 0 W/m2
02:15 27.9 °F 22.2 °F 30.23 in NNW 5 mph 9 mph 79% 0.00 in 0 W/m2
02:20 27.8 °F 22.7 °F 30.23 in North 7 mph 9 mph 81% 0.00 in 0 W/m2
02:25 26.9 °F 22.1 °F 30.23 in NNW 7 mph 10 mph 82% 0.00 in 0 W/m2
02:30 26.7 °F 22.2 °F 30.23 in NNE 6 mph 6 mph 83% 0.00 in 0 W/m2
02:35 26.9 °F 22.4 °F 30.23 in North 5 mph 6 mph 83% 0.00 in 0 W/m2
02:40 27.2 °F 22.7 °F 30.23 in North 5 mph 5 mph 83% 0.00 in 0 W/m2
02:45 27.5 °F 22.4 °F 30.23 in North 6 mph 9 mph 81% 0.00 in 0 W/m2
02:50 27.4 °F 21.4 °F 30.23 in NE 6 mph 7 mph 78% 0.00 in 0 W/m2
02:55 27.2 °F 21.2 °F 30.23 in NNW 7 mph 7 mph 78% 0.00 in 0 W/m2
03:00 26.9 °F 20.7 °F 30.23 in WNW 7 mph 8 mph 77% 0.00 in 0 W/m2
03:05 26.6 °F 21 °F 30.23 in North 8 mph 8 mph 79% 0.00 in 0 W/m2
03:10 26.4 °F 20.5 °F 30.23 in NNW 7 mph 7 mph 78% 0.00 in 0 W/m2
03:15 26.5 °F 20.9 °F 30.23 in NNE 6 mph 7 mph 79% 0.00 in 0 W/m2
03:20 26.7 °F 20.5 °F 30.23 in North 6 mph 10 mph 77% 0.00 in 0 W/m2
03:25 26.7 °F 20.1 °F 30.23 in NNW 6 mph 10 mph 76% 0.00 in 0 W/m2
03:30 26.8 °F 19.9 °F 30.23 in North 6 mph 8 mph 75% 0.00 in 0 W/m2
03:35 26.6 °F 19.4 °F 30.23 in NNW 6 mph 8 mph 74% 0.00 in 0 W/m2
03:40 26.6 °F 19.1 °F 30.23 in West 7 mph 7 mph 73% 0.00 in 0 W/m2
03:45 26.3 °F 18.5 °F 30.23 in NNE 7 mph 7 mph 72% 0.00 in 0 W/m2
03:50 26.2 °F 17.7 °F 30.23 in NW 6 mph 6 mph 70% 0.00 in 0 W/m2
03:55 26.1 °F 17.6 °F 30.23 in NW 5 mph 11 mph 70% 0.00 in 0 W/m2
04:00 26 °F 16.9 °F 30.23 in NW 6 mph 6 mph 68% 0.00 in 0 W/m2
04:05 25.9 °F 16.4 °F 30.23 in NW 6 mph 6 mph 67% 0.00 in 0 W/m2
04:10 25.6 °F 16.2 °F 30.23 in NNW 6 mph 6 mph 67% 0.00 in 0 W/m2
04:15 25.6 °F 16.5 °F 30.23 in NW 6 mph 6 mph 68% 0.00 in 0 W/m2
04:20 25.6 °F 16.2 °F 30.23 in NW 7 mph 12 mph 67% 0.00 in 0 W/m2
04:25 25.4 °F 15.6 °F 30.23 in NNE 8 mph 12 mph 66% 0.00 in 0 W/m2
04:30 25.4 °F 15.6 °F 30.23 in WNW 8 mph 11 mph 66% 0.00 in 0 W/m2
04:35 25.5 °F 15.4 °F 30.23 in WNW 8 mph 11 mph 65% 0.00 in 0 W/m2
04:40 25.4 °F 15.6 °F 30.23 in NNW 8 mph 10 mph 66% 0.00 in 0 W/m2
04:45 25.2 °F 15.8 °F 30.23 in North 6 mph 10 mph 67% 0.00 in 0 W/m2
04:50 25.1 °F 15.7 °F 30.23 in NNW 6 mph 10 mph 67% 0.00 in 0 W/m2
04:55 25.1 °F 16 °F 30.23 in West 8 mph 10 mph 68% 0.00 in 0 W/m2
05:00 25 °F 15.9 °F 30.23 in WNW 8 mph 8 mph 68% 0.00 in 0 W/m2
05:05 24.9 °F 15.8 °F 30.24 in NNW 7 mph 8 mph 68% 0.00 in 0 W/m2
05:10 24.6 °F 15.2 °F 30.23 in WNW 8 mph 8 mph 67% 0.00 in 0 W/m2
05:15 24.5 °F 15.8 °F 30.23 in NNW 8 mph 9 mph 69% 0.00 in 0 W/m2
05:20 24.4 °F 15.7 °F 30.23 in NW 9 mph 10 mph 69% 0.00 in 0 W/m2
05:25 24.3 °F 14.6 °F 30.24 in NW 9 mph 11 mph 66% 0.00 in 0 W/m2
05:30 24.4 °F 15.3 °F 30.23 in NW 8 mph 8 mph 68% 0.00 in 0 W/m2
05:35 24.6 °F 15.9 °F 30.24 in WNW 7 mph 9 mph 69% 0.00 in 0 W/m2
05:40 24.8 °F 16.4 °F 30.23 in NNW 6 mph 8 mph 70% 0.00 in 0 W/m2
05:45 24.8 °F 15.7 °F 30.24 in NNW 6 mph 12 mph 68% 0.00 in 0 W/m2
05:50 24.7 °F 15.6 °F 30.24 in WNW 7 mph 7 mph 68% 0.00 in 0 W/m2
05:55 24.6 °F 15.2 °F 30.24 in West 6 mph 7 mph 67% 0.00 in 0 W/m2
06:00 24.5 °F 15.4 °F 30.24 in NW 5 mph 5 mph 68% 0.00 in 0 W/m2
06:05 24.4 °F 14.7 °F 30.24 in NNW 5 mph 10 mph 66% 0.00 in 0 W/m2
06:10 24.4 °F 15.7 °F 30.24 in NNW 5 mph 6 mph 69% 0.00 in 0 W/m2
06:15 24.4 °F 15.3 °F 30.24 in NW 6 mph 6 mph 68% 0.00 in 0 W/m2
06:20 24.3 °F 14.6 °F 30.24 in NNW 7 mph 11 mph 66% 0.00 in 0 W/m2
06:25 24.3 °F 15.6 °F 30.24 in NNW 7 mph 11 mph 69% 0.00 in 0 W/m2
06:30 24.2 °F 15.5 °F 30.24 in NW 7 mph 13 mph 69% 0.00 in 0 W/m2
06:35 24.1 °F 15.1 °F 30.25 in WNW 8 mph 13 mph 68% 0.00 in 0 W/m2
06:40 24 °F 15.6 °F 30.25 in WNW 9 mph 12 mph 70% 0.00 in 0 W/m2
06:45 23.9 °F 15.2 °F 30.24 in NW 9 mph 12 mph 69% 0.00 in 0 W/m2
06:50 23.8 °F 15.4 °F 30.25 in WNW 8 mph 8 mph 70% 0.00 in 0 W/m2
06:55 23.8 °F 15.8 °F 30.25 in NW 8 mph 13 mph 71% 0.00 in 0 W/m2
07:00 23.6 °F 16.2 °F 30.25 in North 8 mph 8 mph 73% 0.00 in 0 W/m2
07:05 23.7 °F 16.3 °F 30.25 in North 8 mph 10 mph 73% 0.00 in 0 W/m2
07:10 23.7 °F 16.3 °F 30.25 in WNW 7 mph 9 mph 73% 0.00 in 0 W/m2
07:15 23.6 °F 16.2 °F 30.25 in NW 7 mph 9 mph 73% 0.00 in 5 W/m2
07:20 23.6 °F 16.2 °F 30.25 in NNW 8 mph 8 mph 73% 0.00 in 7 W/m2
07:25 23.8 °F 16.4 °F 30.25 in NNW 9 mph 9 mph 73% 0.00 in 7 W/m2
07:30 24 °F 16.9 °F 30.25 in WNW 8 mph 8 mph 74% 0.00 in 9 W/m2
07:35 24.1 °F 17 °F 30.25 in North 8 mph 8 mph 74% 0.00 in 12 W/m2
07:40 24.2 °F 17.1 °F 30.25 in NNE 8 mph 8 mph 74% 0.00 in 16 W/m2
07:45 24.3 °F 17.5 °F 30.26 in North 7 mph 11 mph 75% 0.00 in 21 W/m2
07:50 24.3 °F 17.5 °F 30.26 in NNW 6 mph 6 mph 75% 0.00 in 26 W/m2
07:55 24.4 °F 17.6 °F 30.25 in NNW 7 mph 7 mph 75% 0.00 in 25 W/m2
08:00 24.6 °F 18.4 °F 30.25 in NW 6 mph 8 mph 77% 0.00 in 23 W/m2
08:05 24.7 °F 18.5 °F 30.26 in NNW 7 mph 9 mph 77% 0.00 in 28 W/m2
08:10 25 °F 19.1 °F 30.26 in NNW 7 mph 7 mph 78% 0.00 in 35 W/m2
08:15 25.2 °F 19.6 °F 30.26 in NW 7 mph 7 mph 79% 0.00 in 28 W/m2
08:20 25.2 °F 19.6 °F 30.26 in NNW 7 mph 9 mph 79% 0.00 in 33 W/m2
08:25 25.4 °F 20.1 °F 30.26 in NW 8 mph 9 mph 80% 0.00 in 46 W/m2
08:30 25.4 °F 19.8 °F 30.26 in NNW 8 mph 8 mph 79% 0.00 in 58 W/m2
08:35 25.4 °F 19.8 °F 30.27 in NNE 10 mph 10 mph 79% 0.00 in 56 W/m2
08:40 25.6 °F 20.3 °F 30.27 in North 10 mph 10 mph 80% 0.00 in 49 W/m2
08:45 25.6 °F 20.3 °F 30.27 in WNW 9 mph 10 mph 80% 0.00 in 58 W/m2
08:50 25.7 °F 19.5 °F 30.27 in NNE 9 mph 9 mph 77% 0.00 in 65 W/m2
08:55 25.8 °F 19.6 °F 30.27 in North 10 mph 13 mph 77% 0.00 in 67 W/m2
09:00 26.4 °F 20.2 °F 30.27 in NNW 9 mph 12 mph 77% 0.00 in 84 W/m2
09:05 26.3 °F 19.1 °F 30.27 in WNW 10 mph 12 mph 74% 0.00 in 79 W/m2
09:10 26.3 °F 19.1 °F 30.28 in NNW 11 mph 13 mph 74% 0.00 in 109 W/m2
09:15 26.4 °F 18.9 °F 30.28 in NNW 11 mph 21 mph 73% 0.00 in 137 W/m2
09:20 26.7 °F 19.2 °F 30.28 in WNW 10 mph 14 mph 73% 0.00 in 121 W/m2
09:25 26.5 °F 18.7 °F 30.28 in NNE 10 mph 14 mph 72% 0.00 in 137 W/m2
09:30 26.4 °F 18.6 °F 30.29 in NW 11 mph 11 mph 72% 0.00 in 176 W/m2
09:35 26.5 °F 19 °F 30.29 in NW 10 mph 11 mph 73% 0.00 in 202 W/m2
09:40 26.5 °F 18.7 °F 30.29 in NNW 11 mph 11 mph 72% 0.00 in 181 W/m2
09:45 26.5 °F 18.4 °F 30.30 in North 10 mph 11 mph 71% 0.00 in 232 W/m2
09:50 26.4 °F 18.3 °F 30.30 in WNW 9 mph 9 mph 71% 0.00 in 236 W/m2
09:55 26.2 °F 18.7 °F 30.30 in NNW 11 mph 13 mph 73% 0.00 in 246 W/m2
10:00 26.5 °F 19.3 °F 30.31 in NNW 11 mph 13 mph 74% 0.00 in 262 W/m2
10:05 26 °F 17.6 °F 30.31 in NE 10 mph 13 mph 70% 0.00 in 209 W/m2
10:10 25.6 °F 17.5 °F 30.32 in SSE 11 mph 11 mph 71% 0.00 in 253 W/m2
10:15 26.1 °F 18.6 °F 30.32 in North 10 mph 11 mph 73% 0.00 in 257 W/m2
10:20 25.7 °F 17.3 °F 30.33 in NE 10 mph 10 mph 70% 0.00 in 301 W/m2
10:25 25.8 °F 17 °F 30.33 in ENE 10 mph 10 mph 69% 0.00 in 316 W/m2
10:30 25.6 °F 17.2 °F 30.33 in NNW 9 mph 18 mph 70% 0.00 in 334 W/m2
10:35 25.4 °F 16.3 °F 30.34 in North 9 mph 18 mph 68% 0.00 in 276 W/m2
10:40 25.4 °F 16.6 °F 30.34 in NNE 10 mph 11 mph 69% 0.00 in 390 W/m2
10:45 25.3 °F 17.2 °F 30.34 in North 9 mph 15 mph 71% 0.00 in 397 W/m2
10:50 25.4 °F 17 °F 30.34 in East 8 mph 8 mph 70% 0.00 in 383 W/m2
10:55 25.8 °F 18 °F 30.34 in NE 8 mph 13 mph 72% 0.00 in 285 W/m2
11:00 25.8 °F 18 °F 30.35 in NW 9 mph 14 mph 72% 0.00 in 272 W/m2
11:05 25.9 °F 17.1 °F 30.35 in NE 10 mph 14 mph 69% 0.00 in 777 W/m2
11:10 26.3 °F 17.2 °F 30.35 in NE 9 mph 9 mph 68% 0.00 in 817 W/m2
11:15 26.4 °F 18.3 °F 30.35 in NNW 8 mph 10 mph 71% 0.00 in 740 W/m2
11:20 27 °F 18.5 °F 30.36 in NW 7 mph 12 mph 70% 0.00 in 888 W/m2
11:25 26 °F 17.6 °F 30.36 in NE 8 mph 12 mph 70% 0.00 in 332 W/m2
11:30 26 °F 17.9 °F 30.36 in NNE 8 mph 8 mph 71% 0.00 in 274 W/m2
11:35 26.1 °F 18 °F 30.36 in NNW 8 mph 8 mph 71% 0.00 in 853 W/m2
11:40 26.1 °F 17.6 °F 30.37 in North 8 mph 8 mph 70% 0.00 in 334 W/m2
11:45 25.8 °F 17.4 °F 30.37 in NE 7 mph 8 mph 70% 0.00 in 278 W/m2
11:50 25.7 °F 17.6 °F 30.37 in NNE 7 mph 7 mph 71% 0.00 in 274 W/m2
11:55 25.7 °F 17.6 °F 30.37 in NE 8 mph 8 mph 71% 0.00 in 323 W/m2
12:00 25.8 °F 17.4 °F 30.37 in NW 8 mph 9 mph 70% 0.00 in 315 W/m2
12:05 25.6 °F 16.8 °F 30.38 in NNW 9 mph 11 mph 69% 0.00 in 330 W/m2
12:10 26.6 °F 18.8 °F 30.38 in NNE 9 mph 9 mph 72% 0.00 in 301 W/m2
12:15 26.3 °F 17.2 °F 30.38 in NE 8 mph 9 mph 68% 0.00 in 452 W/m2
12:20 26.2 °F 17.4 °F 30.38 in NE 8 mph 8 mph 69% 0.00 in 264 W/m2
12:25 25.5 °F 16.1 °F 30.38 in East 8 mph 11 mph 67% 0.00 in 420 W/m2
12:30 25.7 °F 16.9 °F 30.38 in NNE 8 mph 12 mph 69% 0.00 in 288 W/m2
12:35 25.9 °F 17.5 °F 30.39 in NW 8 mph 12 mph 70% 0.00 in 299 W/m2
12:40 26.4 °F 17.6 °F 30.39 in NNE 7 mph 7 mph 69% 0.00 in 457 W/m2
12:45 26.7 °F 17.2 °F 30.39 in NE 6 mph 9 mph 67% 0.00 in 364 W/m2
12:50 26.2 °F 17.1 °F 30.39 in North 7 mph 8 mph 68% 0.00 in 274 W/m2
12:55 26.6 °F 16.8 °F 30.39 in North 9 mph 10 mph 66% 0.00 in 1055 W/m2
13:00 26.9 °F 17 °F 30.39 in NNW 9 mph 9 mph 66% 0.00 in 308 W/m2
13:05 27.6 °F 17.7 °F 30.39 in NNE 8 mph 9 mph 66% 0.00 in 990 W/m2
13:10 27.6 °F 17.4 °F 30.39 in NE 8 mph 8 mph 65% 0.00 in 239 W/m2
13:15 27.1 °F 16.5 °F 30.39 in NE 8 mph 8 mph 64% 0.00 in 213 W/m2
13:20 27.3 °F 17.1 °F 30.40 in North 8 mph 9 mph 65% 0.00 in 367 W/m2
13:25 28 °F 17.7 °F 30.40 in NW 9 mph 9 mph 65% 0.00 in 976 W/m2
13:30 28.3 °F 18 °F 30.40 in NNW 9 mph 9 mph 65% 0.00 in 976 W/m2
13:35 28.2 °F 18.6 °F 30.40 in NNE 7 mph 9 mph 67% 0.00 in 937 W/m2
13:40 28.5 °F 17.5 °F 30.40 in NE 6 mph 6 mph 63% 0.00 in 844 W/m2
13:45 29.6 °F 20.3 °F 30.40 in NNW 6 mph 6 mph 68% 0.00 in 865 W/m2
13:50 28.8 °F 17.8 °F 30.40 in NE 7 mph 7 mph 63% 0.00 in 956 W/m2
13:55 28.8 °F 18.1 °F 30.40 in ENE 7 mph 7 mph 64% 0.00 in 1014 W/m2
14:00 28.4 °F 17.8 °F 30.40 in North 6 mph 8 mph 64% 0.00 in 868 W/m2
14:05 29.4 °F 18.3 °F 30.40 in NNW 6 mph 8 mph 63% 0.00 in 867 W/m2
14:10 29.5 °F 18.1 °F 30.40 in NNW 6 mph 6 mph 62% 0.00 in 860 W/m2
14:15 29.8 °F 18.7 °F 30.41 in North 6 mph 11 mph 63% 0.00 in 870 W/m2
14:20 28.9 °F 17.5 °F 30.41 in NNW 7 mph 7 mph 62% 0.00 in 295 W/m2
14:25 30.7 °F 20.3 °F 30.41 in NNW 7 mph 7 mph 65% 0.00 in 990 W/m2
14:30 30.1 °F 19 °F 30.40 in North 6 mph 11 mph 63% 0.00 in 383 W/m2
14:35 29.9 °F 19.2 °F 30.40 in North 7 mph 11 mph 64% 0.00 in 362 W/m2
14:40 29.7 °F 19 °F 30.40 in NE 6 mph 7 mph 64% 0.00 in 267 W/m2
14:45 29.8 °F 19.1 °F 30.40 in NNW 6 mph 7 mph 64% 0.00 in 431 W/m2
Sand Point, Michigan, USA
Compliments of Weather Underground - 2 mb